CYTZ

Toronto / City Centre Airport

Toronto, , Canada
METAR CYTZ 201510Z AUTO 06003KT 1/4SM R08/1200V1800FT FG VV002 05/05 A3003 RMK SLP173
Observed Flight Rules
Feb-20 @ 15:10 UTC (2 hours ago) Instrument Flight Rules
Wind Visibility Clouds Conditions
60° at 3 knots 1/4 miles
  • Vertical visibility at 200' AGL
  • Fog
Temperatures Readings
Current 5°C / 41°F
Dewpoint 5°C / 41°F
Humidity 100%
Altimeter 30.03" Hg
Pressure 1017.3 hPa
Elevation 77
METAR CYTZ 201510Z AUTO 06003KT 1/4SM R08/1200V1800FT FG VV002 05/05 A3003 RMK SLP173
Observed Flight Rules
Feb-20 @ 15:10 UTC
(2 hours ago)
LIFR
Wind Visibility
60° at 3 knots 1/4 miles
Clouds
  • Vertical visibility at 200' AGL
Conditions
  • Fog
Temperature Dewpoint
5°C / 41°F 5°C / 41°F
Humidity Altimeter Pressure
100% 30.03" Hg 1017.3 hPa